sensor_id;sensor_type;location;lat;lon;timestamp;temperature;humidity
24802;DHT22;12898;50.520;12.152;2023-02-04T00:01:52;4.40;99.90
24802;DHT22;12898;50.520;12.152;2023-02-04T00:04:17;4.40;99.90
24802;DHT22;12898;50.520;12.152;2023-02-04T00:06:43;4.30;99.90
24802;DHT22;12898;50.520;12.152;2023-02-04T00:09:09;4.20;99.90
24802;DHT22;12898;50.520;12.152;2023-02-04T00:11:34;4.20;99.90
24802;DHT22;12898;50.520;12.152;2023-02-04T00:14:00;4.00;99.90
24802;DHT22;12898;50.520;12.152;2023-02-04T00:16:26;3.90;99.90
24802;DHT22;12898;50.520;12.152;2023-02-04T00:18:51;3.90;99.90
24802;DHT22;12898;50.520;12.152;2023-02-04T00:21:17;3.80;99.90
24802;DHT22;12898;50.520;12.152;2023-02-04T00:23:43;3.80;99.90
24802;DHT22;12898;50.520;12.152;2023-02-04T00:26:08;3.80;99.90
24802;DHT22;12898;50.520;12.152;2023-02-04T00:28:34;3.70;99.90
24802;DHT22;12898;50.520;12.152;2023-02-04T00:31:00;3.70;99.90
24802;DHT22;12898;50.520;12.152;2023-02-04T00:33:26;3.60;99.90
24802;DHT22;12898;50.520;12.152;2023-02-04T00:35:51;3.60;99.90
24802;DHT22;12898;50.520;12.152;2023-02-04T00:38:17;3.60;99.90
24802;DHT22;12898;50.520;12.152;2023-02-04T00:40:42;3.60;99.90
24802;DHT22;12898;50.520;12.152;2023-02-04T00:43:08;3.60;99.90
24802;DHT22;12898;50.520;12.152;2023-02-04T00:45:34;3.60;99.90
24802;DHT22;12898;50.520;12.152;2023-02-04T00:47:59;3.50;99.90
24802;DHT22;12898;50.520;12.152;2023-02-04T00:50:25;3.50;99.90
24802;DHT22;12898;50.520;12.152;2023-02-04T00:52:51;3.60;99.90
24802;DHT22;12898;50.520;12.152;2023-02-04T00:55:17;3.60;99.90
24802;DHT22;12898;50.520;12.152;2023-02-04T00:57:44;3.60;99.90
24802;DHT22;12898;50.520;12.152;2023-02-04T01:00:14;3.60;99.90
24802;DHT22;12898;50.520;12.152;2023-02-04T01:02:40;3.60;99.90
24802;DHT22;12898;50.520;12.152;2023-02-04T01:05:09;3.60;99.90
24802;DHT22;12898;50.520;12.152;2023-02-04T01:07:35;3.60;99.90
24802;DHT22;12898;50.520;12.152;2023-02-04T01:10:01;3.70;99.90
24802;DHT22;12898;50.520;12.152;2023-02-04T01:12:27;3.70;99.90
24802;DHT22;12898;50.520;12.152;2023-02-04T01:14:53;3.70;99.90
24802;DHT22;12898;50.520;12.152;2023-02-04T01:17:19;3.70;99.90
24802;DHT22;12898;50.520;12.152;2023-02-04T01:19:46;3.70;99.90
24802;DHT22;12898;50.520;12.152;2023-02-04T01:22:12;3.70;99.90
24802;DHT22;12898;50.520;12.152;2023-02-04T01:24:38;3.70;99.90
24802;DHT22;12898;50.520;12.152;2023-02-04T01:27:03;3.70;99.90
24802;DHT22;12898;50.520;12.152;2023-02-04T01:29:30;3.60;99.90
24802;DHT22;12898;50.520;12.152;2023-02-04T01:31:56;3.60;99.90
24802;DHT22;12898;50.520;12.152;2023-02-04T01:34:22;3.50;99.90
24802;DHT22;12898;50.520;12.152;2023-02-04T01:36:47;3.50;99.90
24802;DHT22;12898;50.520;12.152;2023-02-04T01:39:13;3.50;99.90
24802;DHT22;12898;50.520;12.152;2023-02-04T01:41:39;3.50;99.90
24802;DHT22;12898;50.520;12.152;2023-02-04T01:44:05;3.50;99.90
24802;DHT22;12898;50.520;12.152;2023-02-04T01:46:31;3.40;99.90
24802;DHT22;12898;50.520;12.152;2023-02-04T01:49:00;3.40;99.90
24802;DHT22;12898;50.520;12.152;2023-02-04T01:51:27;3.30;99.90
24802;DHT22;12898;50.520;12.152;2023-02-04T01:53:54;3.30;99.90
24802;DHT22;12898;50.520;12.152;2023-02-04T01:56:22;3.20;99.90
24802;DHT22;12898;50.520;12.152;2023-02-04T01:58:50;3.10;99.90
24802;DHT22;12898;50.520;12.152;2023-02-04T02:04:03;2.60;99.90
24802;DHT22;12898;50.520;12.152;2023-02-04T02:06:30;2.40;99.90
24802;DHT22;12898;50.520;12.152;2023-02-04T02:08:56;2.20;99.90
24802;DHT22;12898;50.520;12.152;2023-02-04T02:11:23;2.10;99.90
24802;DHT22;12898;50.520;12.152;2023-02-04T02:13:50;1.90;99.90
24802;DHT22;12898;50.520;12.152;2023-02-04T02:16:16;1.80;99.90
24802;DHT22;12898;50.520;12.152;2023-02-04T02:18:42;1.80;99.90
24802;DHT22;12898;50.520;12.152;2023-02-04T02:21:08;1.70;99.90
24802;DHT22;12898;50.520;12.152;2023-02-04T02:23:50;1.70;99.90
24802;DHT22;12898;50.520;12.152;2023-02-04T02:26:19;1.60;99.90
24802;DHT22;12898;50.520;12.152;2023-02-04T02:28:46;1.60;99.90
24802;DHT22;12898;50.520;12.152;2023-02-04T02:31:13;1.60;99.90
24802;DHT22;12898;50.520;12.152;2023-02-04T02:33:40;1.50;99.90
24802;DHT22;12898;50.520;12.152;2023-02-04T02:36:06;1.50;99.90
24802;DHT22;12898;50.520;12.152;2023-02-04T02:38:32;1.50;99.90
24802;DHT22;12898;50.520;12.152;2023-02-04T02:40:58;1.50;99.90
24802;DHT22;12898;50.520;12.152;2023-02-04T02:43:25;1.50;99.90
24802;DHT22;12898;50.520;12.152;2023-02-04T02:45:53;1.50;99.90
24802;DHT22;12898;50.520;12.152;2023-02-04T02:48:20;1.50;99.90
24802;DHT22;12898;50.520;12.152;2023-02-04T02:50:46;1.50;99.90
24802;DHT22;12898;50.520;12.152;2023-02-04T02:53:15;1.40;99.90
24802;DHT22;12898;50.520;12.152;2023-02-04T02:55:43;1.40;99.90
24802;DHT22;12898;50.520;12.152;2023-02-04T03:00:51;1.40;99.90
24802;DHT22;12898;50.520;12.152;2023-02-04T03:03:21;1.30;99.90
24802;DHT22;12898;50.520;12.152;2023-02-04T03:05:51;1.30;99.90
24802;DHT22;12898;50.520;12.152;2023-02-04T03:08:19;1.30;99.90
24802;DHT22;12898;50.520;12.152;2023-02-04T03:10:45;1.20;99.90
24802;DHT22;12898;50.520;12.152;2023-02-04T03:13:13;1.20;99.90
24802;DHT22;12898;50.520;12.152;2023-02-04T03:15:40;1.20;99.90
24802;DHT22;12898;50.520;12.152;2023-02-04T03:18:07;1.20;99.90
24802;DHT22;12898;50.520;12.152;2023-02-04T03:20:34;1.20;99.90
24802;DHT22;12898;50.520;12.152;2023-02-04T03:22:59;1.20;99.90
24802;DHT22;12898;50.520;12.152;2023-02-04T03:25:26;1.20;99.90
24802;DHT22;12898;50.520;12.152;2023-02-04T03:27:53;1.30;99.90
24802;DHT22;12898;50.520;12.152;2023-02-04T03:30:21;1.20;99.90
24802;DHT22;12898;50.520;12.152;2023-02-04T03:32:46;1.20;99.90
24802;DHT22;12898;50.520;12.152;2023-02-04T03:35:12;1.20;99.90
24802;DHT22;12898;50.520;12.152;2023-02-04T03:37:38;1.20;99.90
24802;DHT22;12898;50.520;12.152;2023-02-04T03:40:04;1.20;99.90
24802;DHT22;12898;50.520;12.152;2023-02-04T03:42:30;1.20;99.90
24802;DHT22;12898;50.520;12.152;2023-02-04T03:44:55;1.20;99.90
24802;DHT22;12898;50.520;12.152;2023-02-04T03:47:21;1.20;99.90
24802;DHT22;12898;50.520;12.152;2023-02-04T03:49:47;1.20;99.90
24802;DHT22;12898;50.520;12.152;2023-02-04T03:52:12;1.20;99.90
24802;DHT22;12898;50.520;12.152;2023-02-04T03:54:38;1.20;99.90
24802;DHT22;12898;50.520;12.152;2023-02-04T03:57:04;1.10;99.90
24802;DHT22;12898;50.520;12.152;2023-02-04T03:59:29;1.10;99.90
24802;DHT22;12898;50.520;12.152;2023-02-04T04:01:55;1.10;99.90
24802;DHT22;12898;50.520;12.152;2023-02-04T04:04:21;1.10;99.90
24802;DHT22;12898;50.520;12.152;2023-02-04T04:06:46;1.10;99.90
24802;DHT22;12898;50.520;12.152;2023-02-04T04:09:12;1.10;99.90
24802;DHT22;12898;50.520;12.152;2023-02-04T04:11:38;1.10;99.90
24802;DHT22;12898;50.520;12.152;2023-02-04T04:14:03;1.00;99.90
24802;DHT22;12898;50.520;12.152;2023-02-04T04:16:29;1.00;99.90
24802;DHT22;12898;50.520;12.152;2023-02-04T04:18:55;1.00;99.90
24802;DHT22;12898;50.520;12.152;2023-02-04T04:21:21;1.00;99.90
24802;DHT22;12898;50.520;12.152;2023-02-04T04:23:47;1.00;99.90
24802;DHT22;12898;50.520;12.152;2023-02-04T04:26:12;1.00;99.90
24802;DHT22;12898;50.520;12.152;2023-02-04T04:28:38;1.00;99.90
24802;DHT22;12898;50.520;12.152;2023-02-04T04:31:04;1.00;99.90
24802;DHT22;12898;50.520;12.152;2023-02-04T04:33:30;0.90;99.90
24802;DHT22;12898;50.520;12.152;2023-02-04T04:35:55;0.90;99.90
24802;DHT22;12898;50.520;12.152;2023-02-04T04:38:21;0.90;99.90
24802;DHT22;12898;50.520;12.152;2023-02-04T04:40:47;0.90;99.90
24802;DHT22;12898;50.520;12.152;2023-02-04T04:43:12;0.90;99.90
24802;DHT22;12898;50.520;12.152;2023-02-04T04:45:38;0.90;99.90
24802;DHT22;12898;50.520;12.152;2023-02-04T04:48:04;0.90;99.90
24802;DHT22;12898;50.520;12.152;2023-02-04T04:50:29;0.90;99.90
24802;DHT22;12898;50.520;12.152;2023-02-04T04:52:55;0.90;99.90
24802;DHT22;12898;50.520;12.152;2023-02-04T04:55:21;0.90;99.90
24802;DHT22;12898;50.520;12.152;2023-02-04T04:57:46;0.80;99.90
24802;DHT22;12898;50.520;12.152;2023-02-04T05:00:17;0.80;99.90
24802;DHT22;12898;50.520;12.152;2023-02-04T05:02:44;0.80;99.90
24802;DHT22;12898;50.520;12.152;2023-02-04T05:05:10;0.80;99.90
24802;DHT22;12898;50.520;12.152;2023-02-04T05:07:36;0.80;99.90
24802;DHT22;12898;50.520;12.152;2023-02-04T05:10:03;0.80;99.90
24802;DHT22;12898;50.520;12.152;2023-02-04T05:12:29;0.80;99.90
24802;DHT22;12898;50.520;12.152;2023-02-04T05:14:55;0.80;99.90
24802;DHT22;12898;50.520;12.152;2023-02-04T05:17:20;0.80;99.90
24802;DHT22;12898;50.520;12.152;2023-02-04T05:19:46;0.80;99.90
24802;DHT22;12898;50.520;12.152;2023-02-04T05:22:12;0.80;99.90
24802;DHT22;12898;50.520;12.152;2023-02-04T05:24:37;0.80;99.90
24802;DHT22;12898;50.520;12.152;2023-02-04T05:27:03;0.80;99.90
24802;DHT22;12898;50.520;12.152;2023-02-04T05:29:29;0.80;99.90
24802;DHT22;12898;50.520;12.152;2023-02-04T05:31:54;0.80;99.90
24802;DHT22;12898;50.520;12.152;2023-02-04T05:34:20;0.80;99.90
24802;DHT22;12898;50.520;12.152;2023-02-04T05:36:46;0.70;99.90
24802;DHT22;12898;50.520;12.152;2023-02-04T05:39:11;0.70;99.90
24802;DHT22;12898;50.520;12.152;2023-02-04T05:41:37;0.70;99.90
24802;DHT22;12898;50.520;12.152;2023-02-04T05:44:04;0.60;99.90
24802;DHT22;12898;50.520;12.152;2023-02-04T05:46:29;0.60;99.90
24802;DHT22;12898;50.520;12.152;2023-02-04T05:48:55;0.60;99.90
24802;DHT22;12898;50.520;12.152;2023-02-04T05:51:21;0.60;99.90
24802;DHT22;12898;50.520;12.152;2023-02-04T05:53:46;0.60;99.90
24802;DHT22;12898;50.520;12.152;2023-02-04T05:56:12;0.50;99.90
24802;DHT22;12898;50.520;12.152;2023-02-04T05:58:38;0.50;99.90
24802;DHT22;12898;50.520;12.152;2023-02-04T06:01:03;0.50;99.90
24802;DHT22;12898;50.520;12.152;2023-02-04T06:03:30;0.50;99.90
24802;DHT22;12898;50.520;12.152;2023-02-04T06:05:57;0.50;99.90
24802;DHT22;12898;50.520;12.152;2023-02-04T06:08:23;0.50;99.90
24802;DHT22;12898;50.520;12.152;2023-02-04T06:10:49;0.30;99.90
24802;DHT22;12898;50.520;12.152;2023-02-04T06:13:14;0.30;99.90
24802;DHT22;12898;50.520;12.152;2023-02-04T06:15:40;0.20;99.90
24802;DHT22;12898;50.520;12.152;2023-02-04T06:18:06;0.20;99.90
24802;DHT22;12898;50.520;12.152;2023-02-04T06:20:31;0.20;99.90
24802;DHT22;12898;50.520;12.152;2023-02-04T06:22:57;0.20;99.90
24802;DHT22;12898;50.520;12.152;2023-02-04T06:25:23;0.20;99.90
24802;DHT22;12898;50.520;12.152;2023-02-04T06:27:49;0.30;99.90
24802;DHT22;12898;50.520;12.152;2023-02-04T06:30:15;0.30;99.90
24802;DHT22;12898;50.520;12.152;2023-02-04T06:32:42;0.30;99.90
24802;DHT22;12898;50.520;12.152;2023-02-04T06:35:08;0.30;99.90
24802;DHT22;12898;50.520;12.152;2023-02-04T06:37:34;0.30;99.90
24802;DHT22;12898;50.520;12.152;2023-02-04T06:40:00;0.40;99.90
24802;DHT22;12898;50.520;12.152;2023-02-04T06:42:25;0.40;99.90
24802;DHT22;12898;50.520;12.152;2023-02-04T06:44:52;0.40;99.90
24802;DHT22;12898;50.520;12.152;2023-02-04T06:47:18;0.40;99.90
24802;DHT22;12898;50.520;12.152;2023-02-04T06:49:44;0.40;99.90
24802;DHT22;12898;50.520;12.152;2023-02-04T06:52:09;0.40;99.90
24802;DHT22;12898;50.520;12.152;2023-02-04T06:54:36;0.40;99.90
24802;DHT22;12898;50.520;12.152;2023-02-04T06:57:02;0.40;99.90
24802;DHT22;12898;50.520;12.152;2023-02-04T06:59:34;0.40;99.90
24802;DHT22;12898;50.520;12.152;2023-02-04T07:02:01;0.40;99.90
24802;DHT22;12898;50.520;12.152;2023-02-04T07:04:27;0.40;99.90
24802;DHT22;12898;50.520;12.152;2023-02-04T07:06:53;0.40;99.90
24802;DHT22;12898;50.520;12.152;2023-02-04T07:09:19;0.40;99.90
24802;DHT22;12898;50.520;12.152;2023-02-04T07:11:45;0.50;99.90
24802;DHT22;12898;50.520;12.152;2023-02-04T07:14:11;0.50;99.90
24802;DHT22;12898;50.520;12.152;2023-02-04T07:16:36;0.50;99.90
24802;DHT22;12898;50.520;12.152;2023-02-04T07:19:02;0.50;99.90
24802;DHT22;12898;50.520;12.152;2023-02-04T07:21:28;0.50;99.90
24802;DHT22;12898;50.520;12.152;2023-02-04T07:23:54;0.50;99.90
24802;DHT22;12898;50.520;12.152;2023-02-04T07:26:20;0.50;99.90
24802;DHT22;12898;50.520;12.152;2023-02-04T07:28:46;0.60;99.90
24802;DHT22;12898;50.520;12.152;2023-02-04T07:31:12;0.60;99.90
24802;DHT22;12898;50.520;12.152;2023-02-04T07:33:38;0.70;99.90
24802;DHT22;12898;50.520;12.152;2023-02-04T07:36:03;0.70;99.90
24802;DHT22;12898;50.520;12.152;2023-02-04T07:38:29;0.60;99.90
24802;DHT22;12898;50.520;12.152;2023-02-04T07:40:55;0.70;99.90
24802;DHT22;12898;50.520;12.152;2023-02-04T07:43:20;0.60;99.90
24802;DHT22;12898;50.520;12.152;2023-02-04T07:45:46;0.60;99.90
24802;DHT22;12898;50.520;12.152;2023-02-04T07:48:12;0.60;99.90
24802;DHT22;12898;50.520;12.152;2023-02-04T07:50:38;0.60;99.90
24802;DHT22;12898;50.520;12.152;2023-02-04T07:53:06;0.70;99.90
24802;DHT22;12898;50.520;12.152;2023-02-04T07:55:32;0.70;99.90
24802;DHT22;12898;50.520;12.152;2023-02-04T07:57:58;0.70;99.90
24802;DHT22;12898;50.520;12.152;2023-02-04T08:00:24;0.80;99.90
24802;DHT22;12898;50.520;12.152;2023-02-04T08:02:50;0.80;99.90
24802;DHT22;12898;50.520;12.152;2023-02-04T08:05:16;0.90;99.90
24802;DHT22;12898;50.520;12.152;2023-02-04T08:07:41;0.90;99.90
24802;DHT22;12898;50.520;12.152;2023-02-04T08:10:08;1.00;99.90
24802;DHT22;12898;50.520;12.152;2023-02-04T08:12:35;1.00;99.90
24802;DHT22;12898;50.520;12.152;2023-02-04T08:15:01;1.10;99.90
24802;DHT22;12898;50.520;12.152;2023-02-04T08:17:27;1.10;99.90
24802;DHT22;12898;50.520;12.152;2023-02-04T08:19:53;1.20;99.90
24802;DHT22;12898;50.520;12.152;2023-02-04T08:22:18;1.20;99.90
24802;DHT22;12898;50.520;12.152;2023-02-04T08:24:44;1.20;99.90
24802;DHT22;12898;50.520;12.152;2023-02-04T08:27:10;1.30;99.90
24802;DHT22;12898;50.520;12.152;2023-02-04T08:29:36;1.30;99.90
24802;DHT22;12898;50.520;12.152;2023-02-04T08:32:02;1.30;99.90
24802;DHT22;12898;50.520;12.152;2023-02-04T08:34:28;1.40;99.90
24802;DHT22;12898;50.520;12.152;2023-02-04T08:36:55;1.40;99.90
24802;DHT22;12898;50.520;12.152;2023-02-04T08:39:20;1.50;99.90
24802;DHT22;12898;50.520;12.152;2023-02-04T08:41:46;1.50;99.90
24802;DHT22;12898;50.520;12.152;2023-02-04T08:44:14;1.50;99.90
24802;DHT22;12898;50.520;12.152;2023-02-04T08:46:39;1.50;99.90
24802;DHT22;12898;50.520;12.152;2023-02-04T08:49:05;1.50;99.90
24802;DHT22;12898;50.520;12.152;2023-02-04T08:51:31;1.50;99.90
24802;DHT22;12898;50.520;12.152;2023-02-04T08:53:57;1.50;99.90
24802;DHT22;12898;50.520;12.152;2023-02-04T08:56:23;1.50;99.90
24802;DHT22;12898;50.520;12.152;2023-02-04T08:58:48;1.50;99.90
24802;DHT22;12898;50.520;12.152;2023-02-04T09:01:14;1.60;99.90
24802;DHT22;12898;50.520;12.152;2023-02-04T09:03:40;1.60;99.90
24802;DHT22;12898;50.520;12.152;2023-02-04T09:06:06;1.60;99.90
24802;DHT22;12898;50.520;12.152;2023-02-04T09:08:32;1.70;99.90
24802;DHT22;12898;50.520;12.152;2023-02-04T09:10:58;1.70;99.90
24802;DHT22;12898;50.520;12.152;2023-02-04T09:13:24;1.70;99.90
24802;DHT22;12898;50.520;12.152;2023-02-04T09:15:49;1.80;99.90
24802;DHT22;12898;50.520;12.152;2023-02-04T09:18:17;1.80;99.90
24802;DHT22;12898;50.520;12.152;2023-02-04T09:20:47;1.80;99.90
24802;DHT22;12898;50.520;12.152;2023-02-04T09:23:13;1.90;99.90
24802;DHT22;12898;50.520;12.152;2023-02-04T09:25:41;1.90;99.90
24802;DHT22;12898;50.520;12.152;2023-02-04T09:28:08;1.90;99.90
24802;DHT22;12898;50.520;12.152;2023-02-04T09:30:39;2.00;99.90
24802;DHT22;12898;50.520;12.152;2023-02-04T09:33:06;2.00;99.90
24802;DHT22;12898;50.520;12.152;2023-02-04T09:35:33;2.10;99.90
24802;DHT22;12898;50.520;12.152;2023-02-04T09:37:58;2.10;99.90
24802;DHT22;12898;50.520;12.152;2023-02-04T09:40:25;2.10;99.90
24802;DHT22;12898;50.520;12.152;2023-02-04T09:42:53;2.10;99.90
24802;DHT22;12898;50.520;12.152;2023-02-04T09:45:25;2.00;99.90
24802;DHT22;12898;50.520;12.152;2023-02-04T09:47:55;2.00;99.90
24802;DHT22;12898;50.520;12.152;2023-02-04T09:50:23;2.00;99.90
24802;DHT22;12898;50.520;12.152;2023-02-04T09:52:53;2.10;99.90
24802;DHT22;12898;50.520;12.152;2023-02-04T09:55:31;2.10;99.90
24802;DHT22;12898;50.520;12.152;2023-02-04T09:58:18;2.10;99.90
24802;DHT22;12898;50.520;12.152;2023-02-04T10:00:57;2.20;99.90
24802;DHT22;12898;50.520;12.152;2023-02-04T10:03:23;2.40;99.90
24802;DHT22;12898;50.520;12.152;2023-02-04T10:05:50;2.60;99.90
24802;DHT22;12898;50.520;12.152;2023-02-04T10:08:27;2.70;99.90
24802;DHT22;12898;50.520;12.152;2023-02-04T10:10:53;2.80;99.90
24802;DHT22;12898;50.520;12.152;2023-02-04T10:13:26;2.80;99.90
24802;DHT22;12898;50.520;12.152;2023-02-04T10:15:56;2.80;99.90
24802;DHT22;12898;50.520;12.152;2023-02-04T10:18:28;2.70;99.90
24802;DHT22;12898;50.520;12.152;2023-02-04T10:21:20;2.50;99.90
24802;DHT22;12898;50.520;12.152;2023-02-04T10:23:50;2.40;99.90
24802;DHT22;12898;50.520;12.152;2023-02-04T10:26:20;2.40;99.90
24802;DHT22;12898;50.520;12.152;2023-02-04T10:28:46;2.40;99.90
24802;DHT22;12898;50.520;12.152;2023-02-04T10:34:14;2.50;99.90
24802;DHT22;12898;50.520;12.152;2023-02-04T10:36:44;2.80;99.90
24802;DHT22;12898;50.520;12.152;2023-02-04T10:39:12;3.00;99.90
24802;DHT22;12898;50.520;12.152;2023-02-04T10:41:48;3.10;99.90
24802;DHT22;12898;50.520;12.152;2023-02-04T10:44:19;3.10;99.90
24802;DHT22;12898;50.520;12.152;2023-02-04T10:46:59;3.00;99.90
24802;DHT22;12898;50.520;12.152;2023-02-04T10:49:25;2.90;99.90
24802;DHT22;12898;50.520;12.152;2023-02-04T10:51:52;2.80;99.90
24802;DHT22;12898;50.520;12.152;2023-02-04T10:54:28;2.70;99.90
24802;DHT22;12898;50.520;12.152;2023-02-04T10:57:28;2.70;99.90
24802;DHT22;12898;50.520;12.152;2023-02-04T10:59:59;2.50;99.90
24802;DHT22;12898;50.520;12.152;2023-02-04T11:05:16;2.40;99.90
24802;DHT22;12898;50.520;12.152;2023-02-04T11:07:45;2.30;99.90
24802;DHT22;12898;50.520;12.152;2023-02-04T11:10:20;2.30;99.90
24802;DHT22;12898;50.520;12.152;2023-02-04T11:13:00;2.30;99.90
24802;DHT22;12898;50.520;12.152;2023-02-04T11:15:42;2.30;99.90
24802;DHT22;12898;50.520;12.152;2023-02-04T11:20:44;2.30;99.90
24802;DHT22;12898;50.520;12.152;2023-02-04T11:26:05;2.40;99.90
24802;DHT22;12898;50.520;12.152;2023-02-04T11:28:43;2.50;99.90
24802;DHT22;12898;50.520;12.152;2023-02-04T11:39:44;2.80;99.90
24802;DHT22;12898;50.520;12.152;2023-02-04T11:42:26;2.80;99.90
24802;DHT22;12898;50.520;12.152;2023-02-04T11:45:01;2.90;99.90
24802;DHT22;12898;50.520;12.152;2023-02-04T11:47:34;3.20;99.90
24802;DHT22;12898;50.520;12.152;2023-02-04T11:50:03;3.60;99.90
24802;DHT22;12898;50.520;12.152;2023-02-04T11:52:36;4.10;99.90
24802;DHT22;12898;50.520;12.152;2023-02-04T11:55:01;4.20;99.90
24802;DHT22;12898;50.520;12.152;2023-02-04T11:57:27;4.20;99.90
24802;DHT22;12898;50.520;12.152;2023-02-04T11:59:53;4.30;99.90
24802;DHT22;12898;50.520;12.152;2023-02-04T12:02:22;4.30;99.90
24802;DHT22;12898;50.520;12.152;2023-02-04T12:04:55;4.40;99.90
24802;DHT22;12898;50.520;12.152;2023-02-04T12:07:25;4.30;99.90
24802;DHT22;12898;50.520;12.152;2023-02-04T12:09:52;4.40;99.90
24802;DHT22;12898;50.520;12.152;2023-02-04T12:12:27;4.30;99.90
24802;DHT22;12898;50.520;12.152;2023-02-04T12:15:12;4.20;99.90
24802;DHT22;12898;50.520;12.152;2023-02-04T12:18:06;4.10;99.90
24802;DHT22;12898;50.520;12.152;2023-02-04T12:20:33;4.10;99.90
24802;DHT22;12898;50.520;12.152;2023-02-04T12:23:00;4.10;99.90
24802;DHT22;12898;50.520;12.152;2023-02-04T12:25:26;4.10;99.90
24802;DHT22;12898;50.520;12.152;2023-02-04T12:27:52;4.00;99.90
24802;DHT22;12898;50.520;12.152;2023-02-04T12:30:20;3.90;99.90
24802;DHT22;12898;50.520;12.152;2023-02-04T12:32:46;3.80;99.90
24802;DHT22;12898;50.520;12.152;2023-02-04T12:35:12;3.80;99.90
24802;DHT22;12898;50.520;12.152;2023-02-04T12:37:38;3.70;99.90
24802;DHT22;12898;50.520;12.152;2023-02-04T12:40:04;3.60;99.90
24802;DHT22;12898;50.520;12.152;2023-02-04T12:42:30;3.60;99.90
24802;DHT22;12898;50.520;12.152;2023-02-04T12:44:56;3.60;99.90
24802;DHT22;12898;50.520;12.152;2023-02-04T12:47:22;3.60;99.90
24802;DHT22;12898;50.520;12.152;2023-02-04T12:49:48;3.50;99.90
24802;DHT22;12898;50.520;12.152;2023-02-04T12:52:13;3.40;99.90
24802;DHT22;12898;50.520;12.152;2023-02-04T12:54:39;3.50;99.90
24802;DHT22;12898;50.520;12.152;2023-02-04T12:57:05;3.80;99.90
24802;DHT22;12898;50.520;12.152;2023-02-04T12:59:30;4.20;99.90
24802;DHT22;12898;50.520;12.152;2023-02-04T13:01:56;4.80;99.90
24802;DHT22;12898;50.520;12.152;2023-02-04T13:04:22;5.20;99.90
24802;DHT22;12898;50.520;12.152;2023-02-04T13:06:48;5.60;99.90
24802;DHT22;12898;50.520;12.152;2023-02-04T13:09:14;5.90;99.90
24802;DHT22;12898;50.520;12.152;2023-02-04T13:11:40;6.30;99.90
24802;DHT22;12898;50.520;12.152;2023-02-04T13:14:05;6.40;99.90
24802;DHT22;12898;50.520;12.152;2023-02-04T13:16:31;6.60;99.90
24802;DHT22;12898;50.520;12.152;2023-02-04T13:18:57;6.60;99.90
24802;DHT22;12898;50.520;12.152;2023-02-04T13:21:23;6.30;99.90
24802;DHT22;12898;50.520;12.152;2023-02-04T13:23:48;6.00;99.90
24802;DHT22;12898;50.520;12.152;2023-02-04T13:26:14;5.70;99.90
24802;DHT22;12898;50.520;12.152;2023-02-04T13:28:40;5.40;99.90
24802;DHT22;12898;50.520;12.152;2023-02-04T13:31:05;5.00;99.90
24802;DHT22;12898;50.520;12.152;2023-02-04T13:33:31;4.70;99.90
24802;DHT22;12898;50.520;12.152;2023-02-04T13:35:57;4.60;99.90
24802;DHT22;12898;50.520;12.152;2023-02-04T13:38:23;4.20;99.90
24802;DHT22;12898;50.520;12.152;2023-02-04T13:40:50;4.00;99.90
24802;DHT22;12898;50.520;12.152;2023-02-04T13:43:15;3.80;99.90
24802;DHT22;12898;50.520;12.152;2023-02-04T13:45:41;3.60;99.90
24802;DHT22;12898;50.520;12.152;2023-02-04T13:48:12;3.40;99.90
24802;DHT22;12898;50.520;12.152;2023-02-04T13:50:38;3.20;99.90
24802;DHT22;12898;50.520;12.152;2023-02-04T13:53:04;3.20;99.90
24802;DHT22;12898;50.520;12.152;2023-02-04T13:55:29;3.20;99.90
24802;DHT22;12898;50.520;12.152;2023-02-04T13:57:55;3.50;99.90
24802;DHT22;12898;50.520;12.152;2023-02-04T14:00:21;4.00;99.90
24802;DHT22;12898;50.520;12.152;2023-02-04T14:02:47;4.50;99.90
24802;DHT22;12898;50.520;12.152;2023-02-04T14:05:13;4.80;99.90
24802;DHT22;12898;50.520;12.152;2023-02-04T14:07:39;5.30;99.90
24802;DHT22;12898;50.520;12.152;2023-02-04T14:10:05;5.50;99.90
24802;DHT22;12898;50.520;12.152;2023-02-04T14:12:31;5.70;99.90
24802;DHT22;12898;50.520;12.152;2023-02-04T14:14:57;6.00;99.90
24802;DHT22;12898;50.520;12.152;2023-02-04T14:17:23;5.90;94.30
24802;DHT22;12898;50.520;12.152;2023-02-04T14:19:49;5.80;96.20
24802;DHT22;12898;50.520;12.152;2023-02-04T14:22:15;5.70;98.80
24802;DHT22;12898;50.520;12.152;2023-02-04T14:24:41;5.60;99.90
24802;DHT22;12898;50.520;12.152;2023-02-04T14:27:09;5.50;97.30
24802;DHT22;12898;50.520;12.152;2023-02-04T14:29:35;5.50;99.90
24802;DHT22;12898;50.520;12.152;2023-02-04T14:32:01;5.60;99.90
24802;DHT22;12898;50.520;12.152;2023-02-04T14:34:27;5.40;99.90
24802;DHT22;12898;50.520;12.152;2023-02-04T14:36:53;5.10;98.10
24802;DHT22;12898;50.520;12.152;2023-02-04T14:39:18;4.80;99.90
24802;DHT22;12898;50.520;12.152;2023-02-04T14:41:44;4.60;99.90
24802;DHT22;12898;50.520;12.152;2023-02-04T14:44:10;4.50;99.90
24802;DHT22;12898;50.520;12.152;2023-02-04T14:46:35;4.40;99.90
24802;DHT22;12898;50.520;12.152;2023-02-04T14:49:01;4.40;99.90
24802;DHT22;12898;50.520;12.152;2023-02-04T14:51:27;4.30;99.90
24802;DHT22;12898;50.520;12.152;2023-02-04T14:53:53;4.10;99.90
24802;DHT22;12898;50.520;12.152;2023-02-04T14:56:18;4.00;99.90
24802;DHT22;12898;50.520;12.152;2023-02-04T14:58:44;3.90;99.90
24802;DHT22;12898;50.520;12.152;2023-02-04T15:01:10;3.80;99.90
24802;DHT22;12898;50.520;12.152;2023-02-04T15:03:36;3.90;99.90
24802;DHT22;12898;50.520;12.152;2023-02-04T15:06:01;4.10;99.90
24802;DHT22;12898;50.520;12.152;2023-02-04T15:08:27;4.30;99.90
24802;DHT22;12898;50.520;12.152;2023-02-04T15:10:53;4.40;99.90
24802;DHT22;12898;50.520;12.152;2023-02-04T15:13:19;4.30;99.20
24802;DHT22;12898;50.520;12.152;2023-02-04T15:15:45;4.10;99.90
24802;DHT22;12898;50.520;12.152;2023-02-04T15:18:10;3.90;99.90
24802;DHT22;12898;50.520;12.152;2023-02-04T15:20:36;3.70;99.90
24802;DHT22;12898;50.520;12.152;2023-02-04T15:23:02;3.60;99.90
24802;DHT22;12898;50.520;12.152;2023-02-04T15:25:27;3.40;99.90
24802;DHT22;12898;50.520;12.152;2023-02-04T15:27:53;3.30;99.90
24802;DHT22;12898;50.520;12.152;2023-02-04T15:30:18;3.20;99.90
24802;DHT22;12898;50.520;12.152;2023-02-04T15:32:44;3.10;99.90
24802;DHT22;12898;50.520;12.152;2023-02-04T15:35:11;3.00;99.90
24802;DHT22;12898;50.520;12.152;2023-02-04T15:37:37;2.90;99.90
24802;DHT22;12898;50.520;12.152;2023-02-04T15:40:04;2.80;99.90
24802;DHT22;12898;50.520;12.152;2023-02-04T15:42:30;2.80;99.90
24802;DHT22;12898;50.520;12.152;2023-02-04T15:44:57;2.70;99.90
24802;DHT22;12898;50.520;12.152;2023-02-04T15:47:23;2.70;99.90
24802;DHT22;12898;50.520;12.152;2023-02-04T15:49:48;2.60;99.90
24802;DHT22;12898;50.520;12.152;2023-02-04T15:52:14;2.50;99.90
24802;DHT22;12898;50.520;12.152;2023-02-04T15:54:40;2.40;99.90